Nearby METAR Reports

 

KIAG - Niagara Falls, New York, USA
Distance from station: W 12mi, 20km
Updated: 04/21/2021 6:53am
Light snow, Mist, Overcast
Light snow, Mist, Overcast
 Wind from NNW
Wind: NNW 8 mph , 13 km/h
Temperature: 28°F , -2°C
Wind Chill: 20°F , -7°C
Dew Point: 28°F , -2°C
Humidity: 100%
Barometer: 1011.9 hPa
Summary: Light snow, Mist
Clouds: Overcast
Visibility: 1 mile , 2 km
Cloud details: Overcast 1300 ft
2021/04/21 10:53 KIAG 211053Z 34007KT 1SM R28R/5000VP6000FT -SN BR VV013 M02/M02 A2988 RMK AO2 SLP132 P0001 T10171022
KBUF - Buffalo/Cheektow, New York, USA
Distance from station: S 13mi, 21km
Updated: 04/21/2021 6:54am
Light snow, Mist, Overcast
Light snow, Mist, Overcast
 Wind from NNW
Wind: NNW 8 mph , 13 km/h
Temperature: 30°F , -1°C
Wind Chill: 22°F , -6°C
Dew Point: 28°F , -2°C
Humidity: 93%
Barometer: 1011.5 hPa
Summary: Light snow, Mist
Clouds: Overcast
Visibility: 1 mile , 2 km
Cloud details: Mostly cloudy 600 ft
Overcast 1400 ft
2021/04/21 10:54 KBUF 211054Z 34007KT 1SM R23/5000VP6000FT -SN BR BKN006 OVC014 M01/M02 A2987 RMK AO2 SLP122 P0006 T10111022 $
 
KROC - Rochester, New York, USA
Distance from station: E 51mi, 82km
Updated: 04/21/2021 6:54am
Light snow, Mist, Overcast
Light snow, Mist, Overcast
 Wind from NNE
Wind: NNE 9 mph , 15 km/h
Temperature: 30°F , -1°C
Wind Chill: 22°F , -6°C
Dew Point: 30°F , -1°C
Humidity: 100%
Barometer: 1010.8 hPa
Summary: Light snow, Mist
Clouds: Overcast
Visibility: 1 1/2 miles , 2.4 km
Cloud details: Mostly cloudy 700 ft
Mostly cloudy 2800 ft
Overcast 3600 ft
2021/04/21 10:54 KROC 211054Z 02008KT 1 1/2SM R04/4500VP6000FT -SN BR BKN007 BKN028 OVC036 M01/M01 A2985 RMK AO2 SLP117 P0001 T10061011
CYSN - St. Catharines A, Ontario, Canada
Distance from station: WNW 25mi, 40km
Updated: 04/20/2021 9:00pm
NOT Current
Light snow, Overcast
Light snow, Overcast
 Wind from NNW
Wind: NNW 7 mph , 11 km/h
Temperature: 34°F , 1°C
Wind Chill: 28°F , -2°C
Dew Point: 32°F , 0°C
Humidity: 93%
Barometer: 1015.9 hPa
Summary: Light Snow
Clouds: Overcast
Visibility: 3 miles , 5 km
Cloud details: Mostly cloudy 900 ft
Overcast 2300 ft
2021/04/21 01:00 CYSN 210100Z 33006KT 3SM -SN BKN009 OVC023 01/M00 A3000 RMK SF5SC3 LAST STFD OBS/NEXT 211100 UTC SLP165
 
KOLE - Olean, New York, USA
Distance from station: SSE 63mi, 102km
Updated: 04/21/2021 6:55am
Light snow, Overcast
Light snow, Overcast
 Wind from NNW
Wind: NNW 5 mph , 7 km/h
Temperature: 28°F , -2°C
Wind Chill: 22°F , -6°C
Dew Point: 28°F , -2°C
Humidity: 100%
Barometer: 1008.1 hPa
Summary: Light Snow
Clouds: Overcast
Visibility: 1 1/2 miles , 2.4 km
Cloud details: Mostly cloudy 700 ft
Overcast 1500 ft
2021/04/21 10:55 KOLE 211055Z AUTO 34004KT 1 1/2SM -SN BKN007 OVC015 M02/M02 A2977 RMK AO2
KJHW - Jamestown, New York, USA
Distance from station: SSW 74mi, 119km
Updated: 04/21/2021 7:04am
Light snow, Freezing, Fog, Overcast
Light snow, Freezing, Fog, Overcast
 Wind from N
Wind: N 6 mph , 9 km/h
Temperature: 28°F , -2°C
Wind Chill: 21°F , -6°C
Dew Point: 27°F , -3°C
Humidity: 93%
Barometer: 1009.5 hPa
Summary: Light snow, Freezing, Fog
Clouds: Overcast
Visibility: 1/2 mile , 0.8 km
Cloud details: Mostly cloudy 300 ft
Overcast 1000 ft
2021/04/21 11:04 KJHW 211104Z AUTO 36005KT 1/2SM -SN FZFG BKN003 OVC010 M02/M03 A2981 RMK AO2 P0001 FZRANO RVRNO
 
CWWZ - Port Weller (mar, Ontario, Canada
Distance from station: WNW 28mi, 45km
Updated: 04/21/2021 6:00am

 Wind from N
Wind: N 16 mph , 26 km/h
Temperature: 32°F , 0°C
Wind Chill: 21°F , -6°C
Dew Point: 32°F , 0°C
Humidity: 100%
2021/04/21 10:00 CWWZ 211000Z AUTO 35014KT M00/M00 RMK AO1 2PAST HR SOG 03 6008 SLP133 P0001 T10021002 50029
CWPC - Port Colborne(Au, Ontario, Canada
Distance from station: WSW 33mi, 53km
Updated: 04/21/2021 6:00am

 Wind from N
Wind: N 10 mph , 17 km/h
Temperature: 30°F , -1°C
Wind Chill: 21°F , -6°C
Dew Point: 28°F , -2°C
Humidity: 93%
2021/04/21 10:00 CWPC 211000Z AUTO 35009KT M01/M02 RMK AO1 SLP129 T10121015 55014
 
CXVN - Vineland (au8), Ontario, Canada
Distance from station: W 36mi, 58km
Updated: 04/21/2021 6:00am

 Wind from NNW
Wind: NNW 13 mph , 20 km/h
Temperature: 30°F , -1°C
Wind Chill: 20°F , -7°C
Dew Point: 30°F , -1°C
Humidity: 100%
2021/04/21 10:00 CXVN 211000Z AUTO 33011KT M01/M01 RMK AO1 9PAST HR SOG 07 5012 PK WND 33017/0947 SLP129 P0004 T10061012 50033
CYTZ - Toronto Il Vor, Ontario, Canada
Distance from station: NW 50mi, 81km
Updated: 04/21/2021 7:00am
Light snow, Overcast
Light snow, Overcast
 Wind from NW
Wind: NW 8 mph , 13 km/h
Temperature: 30°F , -1°C
Wind Chill: 22°F , -6°C
Dew Point: 28°F , -2°C
Humidity: 93%
Barometer: 1012.9 hPa
Summary: Light Snow
Clouds: Overcast
Visibility: 1 1/2 miles , 2.4 km
Cloud details: Overcast 2000 ft
2021/04/21 11:00 CYTZ 211100Z AUTO 31007KT 290V350 1 1/2SM -SN OVC020 M01/M02 A2991 RMK SLP132
 
CXTO - Toronto City, Ontario, Canada
Distance from station: NW 52mi, 84km
Updated: 04/21/2021 6:00am

 
Temperature: 30°F , -1°C
Dew Point: 28°F , -2°C
Humidity: 93%
2021/04/21 10:00 CXTO 211000Z AUTO M01/M02 RMK AO1 6PAST HR 6011 SLP131 P0002 T10101024 50029
KDKK - Dunkirk, New York, USA
Distance from station: SW 52mi, 84km
Updated: 04/21/2021 6:53am
Light snow, Freezing, Fog, Overcast
Light snow, Freezing, Fog, Overcast
 Wind from NNW
Wind: NNW 17 mph , 28 km/h
Temperature: 30°F , -1°C
Wind Chill: 18°F , -8°C
Dew Point: 30°F , -1°C
Humidity: 100%
Barometer: 1011.5 hPa
Summary: Light snow, Freezing, Fog
Clouds: Overcast
Visibility: 1/2 mile , 0.8 km
Cloud details: Overcast 700 ft
2021/04/21 10:53 KDKK 211053Z AUTO 33015KT 1/2SM -SN FZFG OVC007 M01/M01 A2987 RMK AO2 SLP122 P0000 T10061011
 
CYOO - Oshawa, Ontario, Canada
Distance from station: N 56mi, 90km
Updated: 04/21/2021 7:00am
Light snow, Overcast
Light snow, Overcast
 Wind from NNW
Wind: NNW 5 mph , 7 km/h
Temperature: 30°F , -1°C
Wind Chill: 25°F , -4°C
Dew Point: 28°F , -2°C
Humidity: 93%
Barometer: 1012.2 hPa
Summary: Light Snow
Clouds: Overcast
Visibility: 1 3/4 miles , 2.8 km
Cloud details: Overcast 2000 ft
2021/04/21 11:00 CYOO 211100Z AUTO 33004KT 1 3/4SM -SN OVC020 M01/M02 A2989 RMK SLP129
CWWB - Burlington Piers, Ontario, Canada
Distance from station: WNW 56mi, 91km
Updated: 04/21/2021 6:00am

 Wind from NNW
Wind: NNW 8 mph , 13 km/h
Temperature: 30°F , -1°C
Wind Chill: 22°F , -6°C
Dew Point: 28°F , -2°C
Humidity: 93%
2021/04/21 10:00 CWWB 211000Z AUTO 33007KT M01/M02 RMK AO1 SLP134 T10141017 56015
 
CYYZ - Toronto/Pearson, Ontario, Canada
Distance from station: NW 60mi, 96km
Updated: 04/21/2021 7:00am
Light snow, Overcast
Light snow, Overcast
 Wind from NW
Wind: NW 9 mph , 15 km/h
Temperature: 28°F , -2°C
Wind Chill: 19°F , -7°C
Dew Point: 28°F , -2°C
Humidity: 100%
Barometer: 1012.2 hPa
Summary: Light Snow
Clouds: Overcast
Visibility: 1 1/4 miles , 2 km
Cloud details: Overcast 700 ft
2021/04/21 11:00 CYYZ 211100Z 32008KT 1 1/4SM -SN VV007 M02/M02 A2989 RMK SN8 /S03/ SLP130
CYKZ - Toronto Buttonvi, Ontario, Canada
Distance from station: NW 62mi, 99km
Updated: 01/03/2019 4:00am
NOT Current
Partly cloudy
Partly cloudy
 Wind from WSW
Wind: WSW 5 mph , 7 km/h
Temperature: 27°F , -3°C
Wind Chill: 21°F , -6°C
Dew Point: 23°F , -5°C
Humidity: 86%
Barometer: 1010.8 hPa
Clouds: Partly cloudy
Visibility: 15 miles , 24 km
Cloud details: Partly cloudy 4000 ft
2019/01/03 09:00 CYKZ 030900Z 25004KT 15SM SCT040 M03/M05 A2985 RMK SC3 LAST STFD OBS FAREWELL SLP118
 
CXHM - Hamilton Rbg Cs, Ontario, Canada
Distance from station: W 62mi, 100km
Updated: 04/21/2021 6:00am

 Wind from NW
Wind: NW 1 mph , 2 km/h
Temperature: 30°F , -1°C
Dew Point: 28°F , -2°C
Humidity: 93%
2021/04/21 10:00 CXHM 211000Z AUTO 32001KT M01/M02 RMK AO1 5PAST HR 6017 SLP135 P0002 T10131021 50026
KDSV - Dansville, New York, USA
Distance from station: SE 62mi, 100km
Updated: 04/21/2021 6:54am
Light snow, Mist, Overcast
Light snow, Mist, Overcast
 Wind from NW
Wind: NW 10 mph , 17 km/h
Temperature: 34°F , 1°C
Wind Chill: 26°F , -3°C
Dew Point: 28°F , -2°C
Humidity: 81%
Barometer: 1010.2 hPa
Summary: Light snow, Mist
Clouds: Overcast
Visibility: 6 miles , 10 km
Cloud details: Mostly cloudy 1300 ft
Overcast 1900 ft
2021/04/21 10:54 KDSV 211054Z AUTO 32009KT 6SM -SN BR BKN013 OVC019 01/M02 A2983 RMK AO2 SNE00B52 SLP114 P0000 T00061017
 
CYHM - Hamilton Airport, Ontario, Canada
Distance from station: W 63mi, 101km
Updated: 04/21/2021 7:00am
Light snow, Mostly cloudy
Light snow, Mostly cloudy
 Wind from NNW
Wind: NNW 7 mph , 11 km/h
Temperature: 28°F , -2°C
Wind Chill: 21°F , -6°C
Dew Point: 27°F , -3°C
Humidity: 93%
Barometer: 1012.2 hPa
Summary: Light Snow
Clouds: Mostly cloudy
Visibility: 3/4 mile , 1.2 km
Cloud details: Mostly cloudy 600 ft
2021/04/21 11:00 CYHM 211100Z 33006KT 3/4SM R12/P6000FT/D -SN BKN006 M02/M03 A2989 RMK SN6SF2 /S05/ SLP134
CWNC - Cobourg (mars), Ontario, Canada
Distance from station: NNE 63mi, 102km
Updated: 04/21/2021 6:00am

 Wind from N
Wind: N 2 mph , 4 km/h
Temperature: 30°F , -1°C
Dew Point: 28°F , -2°C
Humidity: 93%
2021/04/21 10:00 CWNC 211000Z AUTO 36002KT M01/M02 RMK AO1 6PAST HR 8017 SLP118 P0002 T10091016 50036